createdAt,value
2019-02-02T00:01:32.478Z,88.79
2019-02-02T00:04:47.729Z,88.59
2019-02-02T00:08:03.244Z,88.47
2019-02-02T00:11:18.434Z,88.49
2019-02-02T00:14:33.746Z,88.60
2019-02-02T00:17:49.103Z,88.77
2019-02-02T00:21:04.939Z,89.17
2019-02-02T00:24:20.433Z,88.87
2019-02-02T00:27:41.565Z,88.89
2019-02-02T00:30:54.466Z,88.69
2019-02-02T00:34:09.684Z,88.71
2019-02-02T00:37:25.037Z,88.56
2019-02-02T00:40:40.425Z,88.54
2019-02-02T00:43:55.631Z,88.53
2019-02-02T00:47:10.813Z,88.52
2019-02-02T00:50:26.811Z,88.64
2019-02-02T00:53:42.065Z,89.18
2019-02-02T00:56:57.511Z,89.18
2019-02-02T01:00:13.028Z,89.07
2019-02-02T01:03:28.138Z,88.96
2019-02-02T01:06:43.595Z,88.93
2019-02-02T01:09:59.267Z,88.75
2019-02-02T01:13:15.282Z,88.95
2019-02-02T01:16:30.467Z,89.23
2019-02-02T01:19:45.577Z,89.07
2019-02-02T01:23:00.959Z,88.90
2019-02-02T01:26:16.311Z,88.83
2019-02-02T01:29:31.664Z,89.16
2019-02-02T01:32:47.378Z,89.63
2019-02-02T01:36:02.941Z,89.33
2019-02-02T01:39:18.341Z,89.08
2019-02-02T01:42:33.715Z,88.86
2019-02-02T01:45:48.976Z,88.98
2019-02-02T01:49:04.434Z,88.91
2019-02-02T01:52:19.748Z,88.78
2019-02-02T01:55:35.123Z,88.57
2019-02-02T01:58:50.607Z,88.40
2019-02-02T02:02:05.967Z,88.78
2019-02-02T02:05:21.698Z,89.17
2019-02-02T02:08:37.169Z,88.96
2019-02-02T02:11:52.467Z,88.81
2019-02-02T02:15:07.863Z,88.62
2019-02-02T02:18:23.748Z,88.74
2019-02-02T02:21:39.247Z,88.81
2019-02-02T02:24:54.511Z,88.71
2019-02-02T02:28:09.629Z,88.74
2019-02-02T02:31:24.695Z,89.62
2019-02-02T02:34:39.954Z,89.62
2019-02-02T02:37:55.095Z,89.42
2019-02-02T02:41:10.513Z,89.68
2019-02-02T02:44:26.504Z,89.59
2019-02-02T02:47:41.807Z,89.28
2019-02-02T02:50:57.289Z,88.99
2019-02-02T02:54:12.515Z,88.91
2019-02-02T02:57:27.696Z,88.77
2019-02-02T03:00:43.216Z,88.73
2019-02-02T03:03:58.524Z,88.96
2019-02-02T03:07:13.649Z,88.83
2019-02-02T03:10:28.866Z,88.79
2019-02-02T03:13:44.220Z,89.26
2019-02-02T03:16:59.483Z,89.35
2019-02-02T03:20:15.217Z,89.23
2019-02-02T03:23:30.382Z,89.05
2019-02-02T03:26:45.627Z,88.86
2019-02-02T03:30:00.917Z,88.82
2019-02-02T03:33:16.141Z,88.79
2019-02-02T03:36:31.363Z,88.74
2019-02-02T03:39:46.626Z,88.90
2019-02-02T03:43:01.999Z,89.11
2019-02-02T03:46:17.196Z,88.92
2019-02-02T03:49:32.517Z,88.90
2019-02-02T03:52:47.322Z,89.09
2019-02-02T03:56:02.477Z,89.17
2019-02-02T03:59:17.708Z,89.57
2019-02-02T04:02:32.779Z,90.50
2019-02-02T04:05:48.111Z,90.50
2019-02-02T04:09:03.405Z,90.48
2019-02-02T04:12:18.772Z,90.28
2019-02-02T04:15:34.290Z,90.40
2019-02-02T04:18:49.652Z,90.04
2019-02-02T04:22:05.124Z,89.73
2019-02-02T04:25:21.439Z,89.42
2019-02-02T04:28:37.103Z,89.32
2019-02-02T04:31:52.816Z,89.22
2019-02-02T04:35:08.876Z,89.17
2019-02-02T04:38:24.157Z,89.00
2019-02-02T04:41:39.323Z,88.90
2019-02-02T04:44:54.768Z,88.81
2019-02-02T04:48:10.192Z,88.98
2019-02-02T04:51:25.431Z,89.08
2019-02-02T04:54:40.785Z,88.94
2019-02-02T04:57:55.921Z,88.87
2019-02-02T05:01:11.467Z,88.90
2019-02-02T05:04:26.749Z,88.74
2019-02-02T05:07:42.180Z,88.79
2019-02-02T05:10:57.299Z,88.82
2019-02-02T05:14:12.591Z,88.85
2019-02-02T05:17:28.516Z,88.89
2019-02-02T05:20:43.889Z,88.90
2019-02-02T05:23:59.376Z,88.89
2019-02-02T05:27:14.736Z,88.81
2019-02-02T05:30:29.785Z,88.87
2019-02-02T05:33:45.138Z,88.77
2019-02-02T05:37:00.413Z,88.64
2019-02-02T05:40:15.477Z,88.67
2019-02-02T05:43:32.116Z,88.81
2019-02-02T05:46:47.412Z,88.75
2019-02-02T05:50:02.604Z,88.71
2019-02-02T05:53:17.860Z,88.69
2019-02-02T05:56:33.131Z,88.63
2019-02-02T05:59:52.954Z,88.55
2019-02-02T06:03:05.603Z,88.60
2019-02-02T06:06:20.721Z,88.57
2019-02-02T06:09:35.834Z,88.55
2019-02-02T06:12:51.076Z,88.42
2019-02-02T06:16:06.693Z,88.67
2019-02-02T06:19:22.197Z,89.19
2019-02-02T06:22:37.454Z,89.28
2019-02-02T06:25:52.884Z,89.71
2019-02-02T06:29:08.213Z,90.13
2019-02-02T06:32:23.599Z,90.38
2019-02-02T06:35:38.867Z,89.89
2019-02-02T06:38:54.066Z,89.49
2019-02-02T06:42:09.196Z,89.35
2019-02-02T06:45:26.690Z,89.17
2019-02-02T06:48:41.935Z,89.09
2019-02-02T06:51:57.957Z,89.37
2019-02-02T06:55:13.073Z,89.26
2019-02-02T06:58:28.579Z,89.11
2019-02-02T07:01:43.866Z,89.09
2019-02-02T07:04:59.151Z,89.30
2019-02-02T07:08:14.756Z,90.28
2019-02-02T07:11:30.064Z,90.72
2019-02-02T07:14:45.237Z,90.26
2019-02-02T07:18:00.651Z,89.81
2019-02-02T07:21:16.166Z,89.40
2019-02-02T07:24:31.317Z,89.40
2019-02-02T07:27:46.540Z,89.57
2019-02-02T07:31:01.678Z,89.81
2019-02-02T07:34:17.137Z,90.04
2019-02-02T07:37:32.920Z,90.09
2019-02-02T07:40:48.334Z,89.85
2019-02-02T07:44:03.851Z,89.49
2019-02-02T07:47:19.062Z,89.18
2019-02-02T07:50:34.692Z,89.24
2019-02-02T07:53:49.852Z,88.97
2019-02-02T07:57:05.305Z,88.66
2019-02-02T08:00:39.600Z,88.29
2019-02-02T08:03:45.608Z,88.25
2019-02-02T08:07:00.721Z,87.82
2019-02-02T08:10:16.148Z,87.45
2019-02-02T08:13:31.348Z,87.25
2019-02-02T08:16:46.483Z,86.89
2019-02-02T08:20:01.988Z,86.73
2019-02-02T08:23:17.844Z,86.57
2019-02-02T08:26:33.392Z,86.18
2019-02-02T08:29:48.933Z,85.66
2019-02-02T08:33:04.784Z,85.71
2019-02-02T08:36:20.088Z,85.54
2019-02-02T08:39:35.440Z,85.49
2019-02-02T08:42:50.640Z,85.31
2019-02-02T08:46:06.263Z,85.04
2019-02-02T08:49:21.644Z,85.19
2019-02-02T08:52:36.854Z,85.03
2019-02-02T08:55:52.361Z,85.06
2019-02-02T08:59:07.764Z,84.87
2019-02-02T09:02:22.890Z,84.87
2019-02-02T09:05:38.182Z,84.50
2019-02-02T09:08:53.471Z,84.39
2019-02-02T09:12:08.917Z,84.40
2019-02-02T09:15:24.422Z,84.21
2019-02-02T09:18:39.738Z,84.10
2019-02-02T09:21:55.036Z,83.67
2019-02-02T09:25:11.820Z,82.87
2019-02-02T09:28:27.201Z,82.18
2019-02-02T09:31:42.168Z,82.62
2019-02-02T09:34:57.687Z,83.71
2019-02-02T09:38:12.937Z,84.39
2019-02-02T09:41:29.824Z,84.64
2019-02-02T09:44:45.261Z,84.76
2019-02-02T09:48:00.515Z,85.23
2019-02-02T09:51:15.912Z,86.18
2019-02-02T09:54:32.005Z,86.30
2019-02-02T09:57:47.509Z,87.36
2019-02-02T10:01:02.991Z,86.70
2019-02-02T10:08:32.690Z,85.92
2019-02-02T10:11:48.338Z,87.17
2019-02-02T10:15:06.396Z,87.65
2019-02-02T10:18:22.068Z,87.94
2019-02-02T10:21:38.461Z,87.20
2019-02-02T10:24:54.025Z,85.90
2019-02-02T10:28:09.433Z,85.33
2019-02-02T10:31:24.951Z,85.78
2019-02-02T10:34:41.072Z,85.47
2019-02-02T10:37:56.632Z,85.10
2019-02-02T10:41:11.751Z,84.84
2019-02-02T10:44:27.240Z,83.90
2019-02-02T10:47:43.012Z,83.51
2019-02-02T10:50:58.549Z,83.84
2019-02-02T10:54:14.031Z,83.46
2019-02-02T10:57:30.332Z,83.95
2019-02-02T11:00:45.903Z,83.64
2019-02-02T11:04:01.261Z,83.37
2019-02-02T11:07:17.002Z,83.74
2019-02-02T11:10:32.846Z,84.21
2019-02-02T11:13:48.221Z,84.16
2019-02-02T11:17:03.397Z,83.93
2019-02-02T11:20:19.721Z,84.22
2019-02-02T11:23:35.167Z,84.86
2019-02-02T11:26:50.593Z,84.87
2019-02-02T11:30:05.806Z,84.77
2019-02-02T11:33:21.179Z,84.10
2019-02-02T11:36:36.495Z,83.65
2019-02-02T11:39:51.738Z,83.76
2019-02-02T11:43:07.002Z,83.95
2019-02-02T11:46:22.444Z,83.59
2019-02-02T11:49:38.053Z,83.29
2019-02-02T11:52:53.295Z,83.32
2019-02-02T11:56:08.898Z,84.46
2019-02-02T11:59:24.147Z,86.71
2019-02-02T12:02:49.138Z,86.89
2019-02-02T12:05:56.799Z,86.02
2019-02-02T12:09:12.008Z,85.75
2019-02-02T12:12:27.254Z,85.34
2019-02-02T12:15:42.498Z,85.38
2019-02-02T12:18:58.099Z,85.43
2019-02-02T12:22:13.696Z,84.98
2019-02-02T12:25:29.252Z,85.06
2019-02-02T12:28:44.452Z,85.54
2019-02-02T12:31:59.860Z,86.00
2019-02-02T12:35:17.991Z,85.42
2019-02-02T12:38:33.558Z,85.54
2019-02-02T12:41:48.981Z,85.60
2019-02-02T12:45:05.158Z,84.93
2019-02-02T12:48:20.592Z,83.86
2019-02-02T12:51:35.728Z,83.60
2019-02-02T12:54:50.911Z,82.61
2019-02-02T12:58:05.922Z,81.88
2019-02-02T13:01:21.429Z,82.49
2019-02-02T13:04:36.731Z,82.80
2019-02-02T13:07:52.878Z,82.60
2019-02-02T13:11:08.435Z,82.58
2019-02-02T13:14:23.775Z,82.38
2019-02-02T13:17:39.636Z,82.16
2019-02-02T13:20:55.032Z,82.13
2019-02-02T13:24:10.283Z,81.99
2019-02-02T13:27:25.807Z,82.40
2019-02-02T13:30:41.297Z,81.84
2019-02-02T13:33:56.911Z,81.36
2019-02-02T13:37:13.003Z,80.65
2019-02-02T13:40:28.336Z,81.71
2019-02-02T13:43:44.407Z,81.60
2019-02-02T13:46:59.963Z,80.85
2019-02-02T13:50:16.077Z,80.14
2019-02-02T13:53:31.456Z,78.97
2019-02-02T13:56:49.685Z,78.34
2019-02-02T14:00:03.650Z,77.94
2019-02-02T14:03:18.839Z,76.85
2019-02-02T14:06:34.471Z,76.33
2019-02-02T14:09:50.368Z,75.29
2019-02-02T14:13:05.651Z,75.08
2019-02-02T14:16:22.107Z,74.55
2019-02-02T14:19:37.600Z,73.96
2019-02-02T14:22:57.227Z,74.80
2019-02-02T14:26:13.027Z,74.56
2019-02-02T14:29:28.339Z,75.81
2019-02-02T14:32:43.759Z,76.03
2019-02-02T14:36:01.742Z,75.93
2019-02-02T14:39:16.082Z,75.54
2019-02-02T14:42:31.537Z,76.11
2019-02-02T14:45:46.699Z,76.94
2019-02-02T14:49:01.845Z,77.06
2019-02-02T14:52:17.481Z,77.39
2019-02-02T14:55:33.028Z,78.82
2019-02-02T14:58:49.192Z,79.32
2019-02-02T15:02:04.881Z,81.33
2019-02-02T15:05:21.354Z,82.74
2019-02-02T15:08:37.336Z,82.38
2019-02-02T15:11:52.872Z,82.86
2019-02-02T15:15:08.136Z,82.28
2019-02-02T15:18:23.631Z,81.67
2019-02-02T15:21:39.056Z,81.20
2019-02-02T15:24:54.480Z,80.71
2019-02-02T15:28:10.395Z,80.81
2019-02-02T15:31:26.230Z,81.15
2019-02-02T15:34:41.320Z,81.81
2019-02-02T15:37:56.688Z,81.94
2019-02-02T15:41:11.953Z,82.20
2019-02-02T15:44:26.387Z,83.39
2019-02-02T15:47:41.941Z,83.75
2019-02-02T15:50:57.326Z,83.76
2019-02-02T15:54:12.543Z,84.26
2019-02-02T15:57:27.950Z,85.47
2019-02-02T16:00:43.379Z,85.73
2019-02-02T16:03:58.879Z,85.68
2019-02-02T16:07:13.948Z,85.49
2019-02-02T16:10:30.085Z,85.49
2019-02-02T16:13:45.423Z,85.52
2019-02-02T16:17:03.195Z,85.44
2019-02-02T16:20:20.583Z,85.49
2019-02-02T16:23:35.871Z,85.88
2019-02-02T16:26:51.057Z,85.96
2019-02-02T16:30:07.700Z,86.14
2019-02-02T16:33:23.281Z,86.12
2019-02-02T16:36:38.643Z,86.35
2019-02-02T16:39:53.867Z,87.00
2019-02-02T16:43:09.457Z,86.97
2019-02-02T16:46:24.710Z,86.70
2019-02-02T16:49:40.176Z,86.62
2019-02-02T16:52:55.532Z,86.86
2019-02-02T16:56:10.967Z,86.92
2019-02-02T16:59:26.383Z,86.70
2019-02-02T17:02:42.645Z,86.55
2019-02-02T17:05:57.968Z,86.59
2019-02-02T17:09:14.143Z,87.19
2019-02-02T17:12:29.513Z,87.30
2019-02-02T17:15:45.731Z,87.25
2019-02-02T17:19:01.200Z,87.27
2019-02-02T17:22:16.595Z,87.11
2019-02-02T17:25:31.828Z,86.96
2019-02-02T17:28:47.018Z,86.76
2019-02-02T17:32:02.211Z,86.74
2019-02-02T17:35:17.686Z,86.64
2019-02-02T17:38:33.008Z,86.84
2019-02-02T17:41:48.203Z,86.81
2019-02-02T17:45:03.397Z,86.64
2019-02-02T17:48:19.121Z,86.93
2019-02-02T17:51:34.252Z,87.07
2019-02-02T17:54:49.714Z,87.22
2019-02-02T17:58:05.066Z,87.13
2019-02-02T18:01:20.299Z,86.93
2019-02-02T18:04:39.943Z,86.79
2019-02-02T18:07:52.947Z,86.81
2019-02-02T18:11:08.299Z,87.10
2019-02-02T18:14:23.516Z,87.15
2019-02-02T18:17:38.897Z,87.14
2019-02-02T18:20:54.706Z,87.15
2019-02-02T18:24:09.863Z,87.04
2019-02-02T18:27:25.290Z,87.12
2019-02-02T18:30:40.720Z,87.20
2019-02-02T18:33:56.683Z,87.27
2019-02-02T18:37:12.712Z,87.44
2019-02-02T18:40:29.700Z,88.29
2019-02-02T18:43:45.707Z,88.43
2019-02-02T18:47:00.974Z,88.32
2019-02-02T18:50:16.483Z,88.19
2019-02-02T18:53:31.672Z,88.38
2019-02-02T18:56:46.972Z,88.30
2019-02-02T19:00:02.151Z,88.53
2019-02-02T19:03:17.955Z,89.20
2019-02-02T19:06:34.184Z,88.88
2019-02-02T19:09:49.588Z,88.40
2019-02-02T19:13:05.269Z,88.17
2019-02-02T19:16:21.225Z,88.07
2019-02-02T19:19:36.413Z,87.98
2019-02-02T19:22:52.739Z,87.89
2019-02-02T19:26:08.106Z,87.75
2019-02-02T19:29:23.444Z,87.57
2019-02-02T19:32:39.792Z,87.38
2019-02-02T19:35:55.027Z,87.25
2019-02-02T19:39:10.638Z,87.20
2019-02-02T19:42:25.881Z,87.12
2019-02-02T19:45:41.870Z,87.09
2019-02-02T19:48:57.264Z,87.20
2019-02-02T19:52:12.499Z,87.74
2019-02-02T19:55:27.883Z,87.71
2019-02-02T19:58:43.219Z,87.59
2019-02-02T20:01:59.090Z,87.63
2019-02-02T20:05:14.271Z,87.83
2019-02-02T20:08:29.740Z,87.75
2019-02-02T20:11:44.927Z,87.58
2019-02-02T20:15:00.462Z,87.53
2019-02-02T20:18:15.762Z,87.54
2019-02-02T20:21:30.933Z,87.70
2019-02-02T20:24:47.004Z,87.98
2019-02-02T20:28:02.355Z,88.99
2019-02-02T20:31:18.175Z,89.29
2019-02-02T20:34:33.324Z,89.76
2019-02-02T20:37:48.795Z,90.54
2019-02-02T20:41:03.956Z,90.70
2019-02-02T20:44:19.122Z,90.85
2019-02-02T20:47:35.498Z,90.40
2019-02-02T20:50:50.853Z,90.39
2019-02-02T20:54:06.399Z,90.61
2019-02-02T20:57:21.644Z,90.25
2019-02-02T21:00:36.581Z,90.11
2019-02-02T21:03:52.403Z,89.93
2019-02-02T21:07:07.633Z,89.76
2019-02-02T21:10:22.844Z,89.61
2019-02-02T21:13:38.278Z,89.76
2019-02-02T21:16:53.553Z,89.55
2019-02-02T21:20:12.105Z,88.88
2019-02-02T21:23:27.570Z,88.39
2019-02-02T21:26:43.496Z,88.12
2019-02-02T21:29:59.157Z,88.21
2019-02-02T21:33:14.245Z,87.79
2019-02-02T21:36:29.489Z,87.49
2019-02-02T21:39:44.795Z,87.27
2019-02-02T21:43:00.551Z,87.10
2019-02-02T21:46:16.011Z,86.99
2019-02-02T21:49:31.348Z,87.00
2019-02-02T21:52:46.827Z,87.04
2019-02-02T21:56:01.969Z,86.98
2019-02-02T21:59:17.552Z,87.00
2019-02-02T22:02:33.014Z,87.16
2019-02-02T22:05:48.269Z,87.13
2019-02-02T22:09:04.604Z,87.37
2019-02-02T22:12:20.810Z,87.61
2019-02-02T22:15:36.091Z,87.47
2019-02-02T22:18:51.381Z,87.87
2019-02-02T22:22:06.490Z,87.69
2019-02-02T22:25:22.869Z,87.80
2019-02-02T22:28:38.038Z,87.90
2019-02-02T22:31:54.144Z,88.03
2019-02-02T22:35:09.513Z,88.11
2019-02-02T22:38:24.653Z,87.58
2019-02-02T22:41:39.789Z,87.52
2019-02-02T22:44:55.778Z,87.75
2019-02-02T22:48:11.217Z,88.07
2019-02-02T22:51:26.415Z,88.13
2019-02-02T22:54:42.407Z,88.38
2019-02-02T22:57:58.021Z,88.39
2019-02-02T23:01:22.633Z,88.80
2019-02-02T23:05:02.124Z,88.66
2019-02-02T23:08:52.080Z,88.57
2019-02-02T23:12:35.043Z,88.34
2019-02-02T23:16:20.875Z,88.51
2019-02-02T23:19:36.239Z,88.84
2019-02-02T23:22:51.697Z,88.55
2019-02-02T23:26:07.015Z,88.68
2019-02-02T23:29:22.283Z,88.73
2019-02-02T23:32:37.648Z,88.90
2019-02-02T23:35:53.190Z,89.01
2019-02-02T23:39:08.305Z,88.98
2019-02-02T23:42:23.920Z,88.50
2019-02-02T23:45:39.120Z,87.95
2019-02-02T23:48:54.367Z,87.78
2019-02-02T23:52:09.751Z,88.16
2019-02-02T23:55:24.878Z,88.55
2019-02-02T23:58:40.114Z,88.41
